createdAt,value
2022-10-17T00:48:48.505Z,4.20
2022-10-17T08:32:25.747Z,1.50
2022-10-17T09:26:29.946Z,1.60
2022-10-17T09:31:03.270Z,1.40
2022-10-17T09:45:24.815Z,1.47
2022-10-17T09:54:48.385Z,1.00
2022-10-17T09:59:01.626Z,1.23
2022-10-17T10:03:13.264Z,1.20
2022-10-17T10:07:28.983Z,1.00
2022-10-17T10:11:50.863Z,0.97
2022-10-17T10:16:19.973Z,0.90
2022-10-17T10:20:49.660Z,0.80
2022-10-17T10:25:18.285Z,0.90
2022-10-17T10:29:38.995Z,1.00
2022-10-17T10:34:18.799Z,1.30
2022-10-17T10:38:44.170Z,1.00
2022-10-17T10:47:57.516Z,0.87
2022-10-17T10:52:16.554Z,1.53
2022-10-17T10:56:40.715Z,0.90
2022-10-17T11:00:51.872Z,1.00
2022-10-17T11:05:06.396Z,1.23
2022-10-17T11:09:35.474Z,1.30
2022-10-17T11:14:43.996Z,0.90
2022-10-17T11:19:14.291Z,1.00
2022-10-17T11:23:46.694Z,1.17
2022-10-17T11:27:58.751Z,0.83
2022-10-17T11:32:54.312Z,1.30
2022-10-17T11:37:09.995Z,1.30
2022-10-17T11:41:26.193Z,1.00
2022-10-17T11:46:07.735Z,1.20
2022-10-17T11:55:03.373Z,1.43
2022-10-17T12:00:16.033Z,1.40
2022-10-17T12:04:37.507Z,1.40
2022-10-17T12:08:54.629Z,1.40
2022-10-17T12:13:42.273Z,1.40
2022-10-17T12:18:26.415Z,0.83
2022-10-17T12:22:37.893Z,1.40
2022-10-17T12:26:48.652Z,0.60
2022-10-17T12:31:01.316Z,1.20
2022-10-17T12:35:23.012Z,1.00
2022-10-17T12:39:56.211Z,1.10
2022-10-17T12:44:38.315Z,1.40
2022-10-17T12:49:09.872Z,1.10
2022-10-17T12:53:25.495Z,1.30
2022-10-17T12:57:40.115Z,1.13
2022-10-17T13:01:58.341Z,1.00
2022-10-17T13:06:10.414Z,1.00
2022-10-17T13:10:24.671Z,0.90
2022-10-17T13:14:35.833Z,1.13
2022-10-17T13:18:55.452Z,0.90
2022-10-17T13:23:04.852Z,0.53
2022-10-17T13:27:27.330Z,0.80
2022-10-17T13:31:38.275Z,1.33
2022-10-17T13:36:05.923Z,0.90
2022-10-17T13:44:54.810Z,0.83
2022-10-17T13:49:13.542Z,1.20
2022-10-17T13:53:32.236Z,0.90
2022-10-17T13:57:41.696Z,0.90
2022-10-17T14:01:52.654Z,0.70
2022-10-17T14:06:10.055Z,0.80
2022-10-17T14:10:25.071Z,1.13
2022-10-17T14:14:58.045Z,1.00
2022-10-17T14:19:04.436Z,0.90
2022-10-17T14:23:32.412Z,0.90
2022-10-17T14:28:02.989Z,0.90
2022-10-17T14:32:16.750Z,0.80
2022-10-17T14:36:43.149Z,0.47
2022-10-17T14:41:01.054Z,0.60
2022-10-17T14:45:31.993Z,0.70
2022-10-17T14:49:43.779Z,0.50
2022-10-17T14:54:20.110Z,0.60
2022-10-17T14:58:31.354Z,0.80
2022-10-17T15:02:48.011Z,0.50
2022-10-17T15:07:00.469Z,0.73
2022-10-17T15:11:43.011Z,0.80
2022-10-17T15:20:51.971Z,0.70
2022-10-17T15:25:33.991Z,0.87
2022-10-17T15:29:45.050Z,1.10
2022-10-17T15:33:55.273Z,0.80
2022-10-17T15:38:17.432Z,1.13
2022-10-17T15:42:32.068Z,0.97
2022-10-17T15:46:43.709Z,1.10
2022-10-17T15:50:53.109Z,1.57
2022-10-17T15:55:05.517Z,1.60
2022-10-17T15:59:18.248Z,1.23
2022-10-17T16:03:28.628Z,1.20
2022-10-17T16:07:40.668Z,1.23
2022-10-17T16:11:51.627Z,1.00
2022-10-17T16:16:01.794Z,1.60
2022-10-17T16:20:12.228Z,1.50
2022-10-17T16:24:32.991Z,1.70
2022-10-17T16:28:46.281Z,1.43
2022-10-17T16:33:04.653Z,1.50
2022-10-17T16:37:14.267Z,1.57
2022-10-17T16:41:26.390Z,1.47
2022-10-17T16:45:39.129Z,1.70
2022-10-17T16:49:51.531Z,1.97
2022-10-17T16:58:43.269Z,1.63
2022-10-17T17:03:13.591Z,1.50
2022-10-17T17:11:46.772Z,1.73
2022-10-17T17:16:06.395Z,1.80
2022-10-17T17:20:18.359Z,1.83
2022-10-17T17:24:28.686Z,2.10
2022-10-17T17:28:39.419Z,1.70
2022-10-17T17:32:49.386Z,1.43
2022-10-17T17:37:01.426Z,1.50
2022-10-17T17:41:14.327Z,1.30
2022-10-17T17:45:24.506Z,1.50
2022-10-17T17:49:34.650Z,1.90
2022-10-17T17:53:46.630Z,1.90
2022-10-17T17:57:57.129Z,1.13
2022-10-17T18:02:07.312Z,1.40
2022-10-17T18:06:17.088Z,1.23
2022-10-17T18:10:30.904Z,1.10
2022-10-17T18:14:41.270Z,1.23
2022-10-17T18:18:51.129Z,1.30
2022-10-17T18:23:04.049Z,0.80
2022-10-17T18:27:18.590Z,1.17
2022-10-17T18:31:28.923Z,2.30
2022-10-17T18:35:39.208Z,3.00
2022-10-17T18:39:52.210Z,1.93
2022-10-17T18:44:04.529Z,1.80
2022-10-17T18:48:14.008Z,1.30
2022-10-17T18:52:26.929Z,1.40
2022-10-17T18:56:36.566Z,2.47
2022-10-17T19:00:50.669Z,2.27
2022-10-17T19:05:01.117Z,1.70
2022-10-17T19:09:28.147Z,1.60
2022-10-17T19:13:42.430Z,1.67
2022-10-17T19:17:55.769Z,1.40
2022-10-17T19:22:05.986Z,1.00
2022-10-17T19:26:15.475Z,1.43
2022-10-17T19:30:24.809Z,1.10
2022-10-17T19:34:36.708Z,1.10
2022-10-17T19:38:46.166Z,1.30
2022-10-17T19:42:55.430Z,1.40
2022-10-17T19:47:06.230Z,1.20
2022-10-17T19:51:20.489Z,1.57
2022-10-17T20:00:19.048Z,2.20
2022-10-17T21:01:24.207Z,1.70
2022-10-17T21:20:00.686Z,3.00
2022-10-17T21:39:52.328Z,2.23
2022-10-17T21:48:46.450Z,2.53
2022-10-17T21:52:56.106Z,2.83
2022-10-17T21:57:08.829Z,2.50
2022-10-17T22:01:22.397Z,2.03
2022-10-17T22:05:58.266Z,2.67
2022-10-17T22:10:15.069Z,2.70
2022-10-17T22:14:26.650Z,2.63
2022-10-17T22:18:39.532Z,2.50
2022-10-17T22:22:49.156Z,3.00
2022-10-17T22:27:01.397Z,3.30
2022-10-17T22:31:11.768Z,4.07
2022-10-17T22:35:24.329Z,3.77
2022-10-17T22:39:51.596Z,3.63
2022-10-17T22:44:03.993Z,3.83
2022-10-17T22:49:13.628Z,4.10
2022-10-17T22:53:05.547Z,3.37
2022-10-17T22:57:37.426Z,3.50
2022-10-17T23:01:50.286Z,3.40
